sensor_id;sensor_type;location;lat;lon;timestamp;pressure;altitude;pressure_sealevel;temperature;humidity
58967;BME280;44744;51.894;5.080;2023-03-26T00:00:51;100821.83;;;8.69;84.29
58967;BME280;44744;51.894;5.080;2023-03-26T00:01:51;100824.27;;;8.70;84.38
58967;BME280;44744;51.894;5.080;2023-03-26T00:02:52;100820.92;;;8.69;84.53
58967;BME280;44744;51.894;5.080;2023-03-26T00:03:53;100823.92;;;8.70;84.58
58967;BME280;44744;51.894;5.080;2023-03-26T00:04:53;100824.73;;;8.71;84.63
58967;BME280;44744;51.894;5.080;2023-03-26T00:06:03;100824.23;;;8.70;84.67
58967;BME280;44744;51.894;5.080;2023-03-26T00:07:04;100823.48;;;8.71;84.68
58967;BME280;44744;51.894;5.080;2023-03-26T00:08:05;100825.27;;;8.71;84.81
58967;BME280;44744;51.894;5.080;2023-03-26T00:09:09;100822.95;;;8.71;84.84
58967;BME280;44744;51.894;5.080;2023-03-26T00:10:10;100827.48;;;8.69;84.84
58967;BME280;44744;51.894;5.080;2023-03-26T00:11:13;100823.64;;;8.68;84.78
58967;BME280;44744;51.894;5.080;2023-03-26T00:12:14;100821.30;;;8.69;84.98
58967;BME280;44744;51.894;5.080;2023-03-26T00:13:14;100820.55;;;8.70;84.84
58967;BME280;44744;51.894;5.080;2023-03-26T00:14:14;100820.91;;;8.70;84.92
58967;BME280;44744;51.894;5.080;2023-03-26T00:15:15;100821.19;;;8.71;85.11
58967;BME280;44744;51.894;5.080;2023-03-26T00:16:17;100819.40;;;8.72;85.17
58967;BME280;44744;51.894;5.080;2023-03-26T00:17:18;100815.34;;;8.72;85.24
58967;BME280;44744;51.894;5.080;2023-03-26T00:18:19;100818.50;;;8.72;85.28
58967;BME280;44744;51.894;5.080;2023-03-26T00:19:19;100814.47;;;8.72;85.32
58967;BME280;44744;51.894;5.080;2023-03-26T00:20:20;100809.02;;;8.71;85.20
58967;BME280;44744;51.894;5.080;2023-03-26T00:21:23;100811.46;;;8.72;85.08
58967;BME280;44744;51.894;5.080;2023-03-26T00:22:24;100809.34;;;8.72;85.05
58967;BME280;44744;51.894;5.080;2023-03-26T00:23:25;100802.45;;;8.73;85.21
58967;BME280;44744;51.894;5.080;2023-03-26T00:24:26;100805.25;;;8.73;85.03
58967;BME280;44744;51.894;5.080;2023-03-26T00:25:27;100802.25;;;8.73;85.18
58967;BME280;44744;51.894;5.080;2023-03-26T00:26:27;100800.11;;;8.74;85.30
58967;BME280;44744;51.894;5.080;2023-03-26T00:27:27;100797.17;;;8.72;85.20
58967;BME280;44744;51.894;5.080;2023-03-26T00:28:28;100796.61;;;8.73;85.14
58967;BME280;44744;51.894;5.080;2023-03-26T00:29:28;100798.90;;;8.73;85.24
58967;BME280;44744;51.894;5.080;2023-03-26T00:30:29;100797.51;;;8.73;85.27
58967;BME280;44744;51.894;5.080;2023-03-26T00:31:29;100796.42;;;8.73;85.26
58967;BME280;44744;51.894;5.080;2023-03-26T00:32:30;100795.27;;;8.71;85.47
58967;BME280;44744;51.894;5.080;2023-03-26T00:33:31;100795.27;;;8.71;85.33
58967;BME280;44744;51.894;5.080;2023-03-26T00:34:31;100796.81;;;8.72;85.32
58967;BME280;44744;51.894;5.080;2023-03-26T00:35:35;100793.85;;;8.72;85.36
58967;BME280;44744;51.894;5.080;2023-03-26T00:36:35;100790.34;;;8.71;85.26
58967;BME280;44744;51.894;5.080;2023-03-26T00:37:36;100791.91;;;8.72;85.35
58967;BME280;44744;51.894;5.080;2023-03-26T00:38:37;100790.14;;;8.72;85.12
58967;BME280;44744;51.894;5.080;2023-03-26T00:39:37;100789.94;;;8.72;85.28
58967;BME280;44744;51.894;5.080;2023-03-26T00:40:38;100788.71;;;8.72;85.22
58967;BME280;44744;51.894;5.080;2023-03-26T00:41:38;100786.81;;;8.71;85.32
58967;BME280;44744;51.894;5.080;2023-03-26T00:42:39;100784.34;;;8.71;85.36
58967;BME280;44744;51.894;5.080;2023-03-26T00:43:39;100783.96;;;8.72;85.33
58967;BME280;44744;51.894;5.080;2023-03-26T00:44:39;100779.39;;;8.72;85.37
58967;BME280;44744;51.894;5.080;2023-03-26T00:45:40;100778.69;;;8.72;85.36
58967;BME280;44744;51.894;5.080;2023-03-26T00:46:40;100777.10;;;8.71;85.29
58967;BME280;44744;51.894;5.080;2023-03-26T00:47:40;100774.79;;;8.72;85.29
58967;BME280;44744;51.894;5.080;2023-03-26T00:48:40;100776.73;;;8.72;85.27
58967;BME280;44744;51.894;5.080;2023-03-26T00:49:41;100772.33;;;8.72;85.24
58967;BME280;44744;51.894;5.080;2023-03-26T00:50:45;100773.36;;;8.72;85.26
58967;BME280;44744;51.894;5.080;2023-03-26T00:51:46;100770.90;;;8.72;85.19
58967;BME280;44744;51.894;5.080;2023-03-26T00:52:46;100772.32;;;8.72;85.11
58967;BME280;44744;51.894;5.080;2023-03-26T00:53:48;100772.46;;;8.73;85.16
58967;BME280;44744;51.894;5.080;2023-03-26T00:54:51;100768.08;;;8.72;85.13
58967;BME280;44744;51.894;5.080;2023-03-26T00:55:51;100768.02;;;8.73;85.17
58967;BME280;44744;51.894;5.080;2023-03-26T00:56:52;100763.96;;;8.74;85.10
58967;BME280;44744;51.894;5.080;2023-03-26T00:57:52;100764.46;;;8.74;85.11
58967;BME280;44744;51.894;5.080;2023-03-26T00:58:52;100764.05;;;8.75;85.02
58967;BME280;44744;51.894;5.080;2023-03-26T00:59:53;100763.98;;;8.77;85.05
58967;BME280;44744;51.894;5.080;2023-03-26T01:00:55;100758.55;;;8.76;85.06
58967;BME280;44744;51.894;5.080;2023-03-26T01:01:56;100759.56;;;8.77;85.18
58967;BME280;44744;51.894;5.080;2023-03-26T01:02:57;100757.92;;;8.78;85.03
58967;BME280;44744;51.894;5.080;2023-03-26T01:04:24;100757.36;;;8.79;84.98
58967;BME280;44744;51.894;5.080;2023-03-26T01:06:36;100755.27;;;8.78;85.02
58967;BME280;44744;51.894;5.080;2023-03-26T01:07:38;100758.65;;;8.78;84.97
58967;BME280;44744;51.894;5.080;2023-03-26T01:09:40;100760.25;;;8.77;84.88
58967;BME280;44744;51.894;5.080;2023-03-26T01:10:43;100757.44;;;8.77;84.97
58967;BME280;44744;51.894;5.080;2023-03-26T01:11:44;100758.17;;;8.77;84.86
58967;BME280;44744;51.894;5.080;2023-03-26T01:12:45;100758.36;;;8.73;84.93
58967;BME280;44744;51.894;5.080;2023-03-26T01:13:49;100759.97;;;8.72;84.87
58967;BME280;44744;51.894;5.080;2023-03-26T01:14:52;100755.01;;;8.73;85.01
58967;BME280;44744;51.894;5.080;2023-03-26T01:15:54;100754.70;;;8.72;84.95
58967;BME280;44744;51.894;5.080;2023-03-26T01:16:59;100751.67;;;8.73;84.95
58967;BME280;44744;51.894;5.080;2023-03-26T01:18:00;100747.44;;;8.73;84.94
58967;BME280;44744;51.894;5.080;2023-03-26T01:19:00;100744.84;;;8.71;85.15
58967;BME280;44744;51.894;5.080;2023-03-26T01:20:18;100746.80;;;8.71;85.18
58967;BME280;44744;51.894;5.080;2023-03-26T01:21:23;100742.34;;;8.69;84.92
58967;BME280;44744;51.894;5.080;2023-03-26T01:22:25;100739.22;;;8.67;85.02
58967;BME280;44744;51.894;5.080;2023-03-26T01:23:54;100737.98;;;8.67;84.99
58967;BME280;44744;51.894;5.080;2023-03-26T01:24:53;100733.48;;;8.66;85.04
58967;BME280;44744;51.894;5.080;2023-03-26T01:26:10;100733.36;;;8.65;84.96
58967;BME280;44744;51.894;5.080;2023-03-26T01:27:22;100732.54;;;8.64;85.00
58967;BME280;44744;51.894;5.080;2023-03-26T01:28:26;100726.95;;;8.62;84.93
58967;BME280;44744;51.894;5.080;2023-03-26T01:30:59;100724.71;;;8.61;84.91
58967;BME280;44744;51.894;5.080;2023-03-26T01:32:19;100725.67;;;8.60;84.92
58967;BME280;44744;51.894;5.080;2023-03-26T01:33:26;100725.93;;;8.58;84.96
58967;BME280;44744;51.894;5.080;2023-03-26T01:34:59;100723.55;;;8.56;84.98
58967;BME280;44744;51.894;5.080;2023-03-26T01:36:29;100721.46;;;8.56;84.94
58967;BME280;44744;51.894;5.080;2023-03-26T01:37:51;100717.29;;;8.54;84.93
58967;BME280;44744;51.894;5.080;2023-03-26T01:39:23;100719.08;;;8.54;84.95
58967;BME280;44744;51.894;5.080;2023-03-26T01:40:33;100714.38;;;8.52;84.93
58967;BME280;44744;51.894;5.080;2023-03-26T01:41:46;100713.14;;;8.52;85.03
58967;BME280;44744;51.894;5.080;2023-03-26T01:42:57;100709.95;;;8.53;84.84
58967;BME280;44744;51.894;5.080;2023-03-26T01:46:13;100708.88;;;8.53;84.91
58967;BME280;44744;51.894;5.080;2023-03-26T01:47:15;100703.45;;;8.52;84.90
58967;BME280;44744;51.894;5.080;2023-03-26T01:48:16;100702.78;;;8.52;85.05
58967;BME280;44744;51.894;5.080;2023-03-26T01:49:18;100704.60;;;8.51;84.87
58967;BME280;44744;51.894;5.080;2023-03-26T01:50:18;100697.37;;;8.51;84.86
58967;BME280;44744;51.894;5.080;2023-03-26T01:51:33;100699.68;;;8.50;84.69
58967;BME280;44744;51.894;5.080;2023-03-26T01:52:33;100697.60;;;8.49;84.88
58967;BME280;44744;51.894;5.080;2023-03-26T01:53:37;100696.20;;;8.49;84.84
58967;BME280;44744;51.894;5.080;2023-03-26T01:54:39;100692.47;;;8.50;84.76
58967;BME280;44744;51.894;5.080;2023-03-26T01:58:28;100689.36;;;8.48;84.75
58967;BME280;44744;51.894;5.080;2023-03-26T01:59:53;100688.73;;;8.47;84.75
58967;BME280;44744;51.894;5.080;2023-03-26T02:01:07;100689.45;;;8.47;84.82
58967;BME280;44744;51.894;5.080;2023-03-26T02:02:28;100690.02;;;8.46;84.93
58967;BME280;44744;51.894;5.080;2023-03-26T02:03:34;100688.30;;;8.44;84.94
58967;BME280;44744;51.894;5.080;2023-03-26T02:04:49;100685.98;;;8.45;85.01
58967;BME280;44744;51.894;5.080;2023-03-26T02:06:10;100684.92;;;8.46;84.85
58967;BME280;44744;51.894;5.080;2023-03-26T02:08:31;100684.18;;;8.46;84.83
58967;BME280;44744;51.894;5.080;2023-03-26T02:09:53;100687.04;;;8.45;84.87
58967;BME280;44744;51.894;5.080;2023-03-26T02:10:59;100686.94;;;8.44;84.97
58967;BME280;44744;51.894;5.080;2023-03-26T02:12:02;100683.15;;;8.42;84.93
58967;BME280;44744;51.894;5.080;2023-03-26T02:13:03;100683.15;;;8.42;84.71
58967;BME280;44744;51.894;5.080;2023-03-26T02:14:04;100682.91;;;8.43;84.97
58967;BME280;44744;51.894;5.080;2023-03-26T02:15:07;100679.16;;;8.44;84.93
58967;BME280;44744;51.894;5.080;2023-03-26T02:16:10;100677.41;;;8.43;84.94
58967;BME280;44744;51.894;5.080;2023-03-26T02:17:11;100674.25;;;8.43;84.83
58967;BME280;44744;51.894;5.080;2023-03-26T02:18:11;100675.10;;;8.44;84.95
58967;BME280;44744;51.894;5.080;2023-03-26T02:19:13;100670.16;;;8.44;84.91
58967;BME280;44744;51.894;5.080;2023-03-26T02:20:14;100668.40;;;8.44;84.86
58967;BME280;44744;51.894;5.080;2023-03-26T02:21:21;100668.62;;;8.44;84.68
58967;BME280;44744;51.894;5.080;2023-03-26T02:22:22;100665.32;;;8.42;84.90
58967;BME280;44744;51.894;5.080;2023-03-26T02:23:22;100664.25;;;8.42;84.91
58967;BME280;44744;51.894;5.080;2023-03-26T02:24:22;100661.65;;;8.42;84.90
58967;BME280;44744;51.894;5.080;2023-03-26T02:25:23;100662.36;;;8.42;85.00
58967;BME280;44744;51.894;5.080;2023-03-26T02:26:25;100655.54;;;8.41;84.85
58967;BME280;44744;51.894;5.080;2023-03-26T02:27:26;100652.88;;;8.41;84.89
58967;BME280;44744;51.894;5.080;2023-03-26T02:28:27;100650.64;;;8.40;84.85
58967;BME280;44744;51.894;5.080;2023-03-26T02:29:27;100649.42;;;8.40;84.95
58967;BME280;44744;51.894;5.080;2023-03-26T02:30:27;100646.58;;;8.40;84.89
58967;BME280;44744;51.894;5.080;2023-03-26T02:31:28;100645.14;;;8.40;84.86
58967;BME280;44744;51.894;5.080;2023-03-26T02:32:32;100644.75;;;8.41;84.84
58967;BME280;44744;51.894;5.080;2023-03-26T02:33:33;100643.86;;;8.42;84.86
58967;BME280;44744;51.894;5.080;2023-03-26T02:34:33;100645.63;;;8.41;84.84
58967;BME280;44744;51.894;5.080;2023-03-26T02:35:33;100644.05;;;8.42;84.76
58967;BME280;44744;51.894;5.080;2023-03-26T02:36:34;100638.45;;;8.40;84.68
58967;BME280;44744;51.894;5.080;2023-03-26T02:37:34;100638.77;;;8.41;84.77
58967;BME280;44744;51.894;5.080;2023-03-26T02:38:34;100637.20;;;8.41;84.83
58967;BME280;44744;51.894;5.080;2023-03-26T02:39:35;100638.64;;;8.41;84.84
58967;BME280;44744;51.894;5.080;2023-03-26T02:40:35;100636.52;;;8.41;84.91
58967;BME280;44744;51.894;5.080;2023-03-26T02:41:36;100637.59;;;8.40;84.84
58967;BME280;44744;51.894;5.080;2023-03-26T02:42:37;100637.07;;;8.40;84.77
58967;BME280;44744;51.894;5.080;2023-03-26T02:43:37;100635.85;;;8.39;84.92
58967;BME280;44744;51.894;5.080;2023-03-26T02:44:38;100639.73;;;8.39;84.77
58967;BME280;44744;51.894;5.080;2023-03-26T02:45:38;100637.30;;;8.38;84.76
58967;BME280;44744;51.894;5.080;2023-03-26T02:46:38;100636.40;;;8.39;84.91
58967;BME280;44744;51.894;5.080;2023-03-26T02:47:39;100636.94;;;8.38;84.88
58967;BME280;44744;51.894;5.080;2023-03-26T02:48:39;100633.25;;;8.39;84.72
58967;BME280;44744;51.894;5.080;2023-03-26T02:49:39;100631.70;;;8.38;84.70
58967;BME280;44744;51.894;5.080;2023-03-26T02:50:40;100629.60;;;8.38;84.75
58967;BME280;44744;51.894;5.080;2023-03-26T02:51:41;100627.66;;;8.37;84.69
58967;BME280;44744;51.894;5.080;2023-03-26T02:52:41;100629.79;;;8.37;84.75
58967;BME280;44744;51.894;5.080;2023-03-26T02:53:41;100627.03;;;8.36;84.79
58967;BME280;44744;51.894;5.080;2023-03-26T02:54:41;100625.13;;;8.35;84.78
58967;BME280;44744;51.894;5.080;2023-03-26T02:55:42;100623.52;;;8.35;84.81
58967;BME280;44744;51.894;5.080;2023-03-26T02:56:42;100621.56;;;8.36;84.76
58967;BME280;44744;51.894;5.080;2023-03-26T02:57:42;100616.66;;;8.35;84.68
58967;BME280;44744;51.894;5.080;2023-03-26T02:58:43;100618.41;;;8.35;84.77
58967;BME280;44744;51.894;5.080;2023-03-26T02:59:43;100618.06;;;8.35;84.67
58967;BME280;44744;51.894;5.080;2023-03-26T03:00:43;100616.16;;;8.35;84.70
58967;BME280;44744;51.894;5.080;2023-03-26T03:01:44;100616.48;;;8.36;84.65
58967;BME280;44744;51.894;5.080;2023-03-26T03:02:44;100618.59;;;8.36;84.76
58967;BME280;44744;51.894;5.080;2023-03-26T03:03:45;100615.30;;;8.35;84.65
58967;BME280;44744;51.894;5.080;2023-03-26T03:04:45;100618.45;;;8.35;84.56
58967;BME280;44744;51.894;5.080;2023-03-26T03:05:51;100615.98;;;8.35;84.66
58967;BME280;44744;51.894;5.080;2023-03-26T03:06:55;100617.58;;;8.35;84.48
58967;BME280;44744;51.894;5.080;2023-03-26T03:07:56;100616.57;;;8.34;84.63
58967;BME280;44744;51.894;5.080;2023-03-26T03:08:57;100617.66;;;8.33;84.58
58967;BME280;44744;51.894;5.080;2023-03-26T03:10:00;100616.95;;;8.33;84.45
58967;BME280;44744;51.894;5.080;2023-03-26T03:11:02;100616.09;;;8.33;84.53
58967;BME280;44744;51.894;5.080;2023-03-26T03:12:02;100613.48;;;8.32;84.54
58967;BME280;44744;51.894;5.080;2023-03-26T03:13:03;100611.38;;;8.32;84.69
58967;BME280;44744;51.894;5.080;2023-03-26T03:14:03;100610.52;;;8.31;84.54
58967;BME280;44744;51.894;5.080;2023-03-26T03:15:04;100609.11;;;8.31;84.70
58967;BME280;44744;51.894;5.080;2023-03-26T03:16:05;100612.60;;;8.32;84.59
58967;BME280;44744;51.894;5.080;2023-03-26T03:17:07;100609.08;;;8.32;84.59
58967;BME280;44744;51.894;5.080;2023-03-26T03:18:08;100608.37;;;8.32;84.60
58967;BME280;44744;51.894;5.080;2023-03-26T03:19:08;100607.27;;;8.33;84.64
58967;BME280;44744;51.894;5.080;2023-03-26T03:20:12;100605.85;;;8.33;84.57
58967;BME280;44744;51.894;5.080;2023-03-26T03:21:12;100602.19;;;8.32;84.36
58967;BME280;44744;51.894;5.080;2023-03-26T03:22:12;100600.27;;;8.32;84.52
58967;BME280;44744;51.894;5.080;2023-03-26T03:23:14;100600.81;;;8.32;84.47
58967;BME280;44744;51.894;5.080;2023-03-26T03:24:15;100596.58;;;8.32;84.56
58967;BME280;44744;51.894;5.080;2023-03-26T03:25:15;100595.71;;;8.31;84.43
58967;BME280;44744;51.894;5.080;2023-03-26T03:26:18;100597.11;;;8.32;84.34
58967;BME280;44744;51.894;5.080;2023-03-26T03:27:20;100597.12;;;8.32;84.33
58967;BME280;44744;51.894;5.080;2023-03-26T03:28:20;100594.49;;;8.31;84.46
58967;BME280;44744;51.894;5.080;2023-03-26T03:29:20;100595.67;;;8.32;84.30
58967;BME280;44744;51.894;5.080;2023-03-26T03:30:21;100593.92;;;8.32;84.47
58967;BME280;44744;51.894;5.080;2023-03-26T03:31:22;100590.95;;;8.31;84.57
58967;BME280;44744;51.894;5.080;2023-03-26T03:32:23;100591.47;;;8.32;84.43
58967;BME280;44744;51.894;5.080;2023-03-26T03:33:24;100591.64;;;8.32;84.59
58967;BME280;44744;51.894;5.080;2023-03-26T03:34:24;100589.39;;;8.31;84.29
58967;BME280;44744;51.894;5.080;2023-03-26T03:35:25;100588.39;;;8.30;84.26
58967;BME280;44744;51.894;5.080;2023-03-26T03:36:26;100585.64;;;8.29;84.28
58967;BME280;44744;51.894;5.080;2023-03-26T03:37:26;100582.70;;;8.28;84.29
58967;BME280;44744;51.894;5.080;2023-03-26T03:38:26;100582.74;;;8.27;84.30
58967;BME280;44744;51.894;5.080;2023-03-26T03:39:27;100582.02;;;8.27;84.27
58967;BME280;44744;51.894;5.080;2023-03-26T03:40:27;100582.38;;;8.27;84.18
58967;BME280;44744;51.894;5.080;2023-03-26T03:41:28;100585.58;;;8.26;84.35
58967;BME280;44744;51.894;5.080;2023-03-26T03:42:28;100584.35;;;8.26;84.34
58967;BME280;44744;51.894;5.080;2023-03-26T03:43:31;100581.01;;;8.26;84.38
58967;BME280;44744;51.894;5.080;2023-03-26T03:44:31;100578.55;;;8.26;84.22
58967;BME280;44744;51.894;5.080;2023-03-26T03:45:31;100576.98;;;8.26;84.26
58967;BME280;44744;51.894;5.080;2023-03-26T03:46:32;100577.35;;;8.25;84.16
58967;BME280;44744;51.894;5.080;2023-03-26T03:47:32;100575.13;;;8.24;84.14
58967;BME280;44744;51.894;5.080;2023-03-26T03:48:32;100572.70;;;8.23;84.05
58967;BME280;44744;51.894;5.080;2023-03-26T03:49:33;100572.95;;;8.22;84.08
58967;BME280;44744;51.894;5.080;2023-03-26T03:50:33;100568.05;;;8.21;84.12
58967;BME280;44744;51.894;5.080;2023-03-26T03:51:33;100566.52;;;8.19;84.10
58967;BME280;44744;51.894;5.080;2023-03-26T03:52:33;100568.98;;;8.19;84.02
58967;BME280;44744;51.894;5.080;2023-03-26T03:53:34;100565.47;;;8.19;84.19
58967;BME280;44744;51.894;5.080;2023-03-26T03:54:34;100563.55;;;8.19;84.20
58967;BME280;44744;51.894;5.080;2023-03-26T03:55:34;100562.27;;;8.19;84.06
58967;BME280;44744;51.894;5.080;2023-03-26T03:56:35;100559.72;;;8.18;84.16
58967;BME280;44744;51.894;5.080;2023-03-26T03:57:35;100556.98;;;8.17;84.12
58967;BME280;44744;51.894;5.080;2023-03-26T03:58:36;100559.98;;;8.17;84.00
58967;BME280;44744;51.894;5.080;2023-03-26T03:59:36;100557.54;;;8.16;84.09
58967;BME280;44744;51.894;5.080;2023-03-26T04:01:07;100557.22;;;8.16;84.02
58967;BME280;44744;51.894;5.080;2023-03-26T04:02:07;100557.84;;;8.14;84.08
58967;BME280;44744;51.894;5.080;2023-03-26T04:03:08;100557.85;;;8.13;84.10
58967;BME280;44744;51.894;5.080;2023-03-26T04:04:08;100555.38;;;8.13;84.01
58967;BME280;44744;51.894;5.080;2023-03-26T04:05:09;100557.48;;;8.14;84.04
58967;BME280;44744;51.894;5.080;2023-03-26T04:06:09;100554.86;;;8.13;83.97
58967;BME280;44744;51.894;5.080;2023-03-26T04:07:09;100552.23;;;8.13;84.03
58967;BME280;44744;51.894;5.080;2023-03-26T04:08:10;100552.02;;;8.14;83.98
58967;BME280;44744;51.894;5.080;2023-03-26T04:09:10;100549.23;;;8.13;84.04
58967;BME280;44744;51.894;5.080;2023-03-26T04:10:12;100551.16;;;8.13;83.93
58967;BME280;44744;51.894;5.080;2023-03-26T04:11:14;100545.92;;;8.13;84.00
58967;BME280;44744;51.894;5.080;2023-03-26T04:12:14;100545.94;;;8.12;84.05
58967;BME280;44744;51.894;5.080;2023-03-26T04:13:14;100543.14;;;8.12;83.87
58967;BME280;44744;51.894;5.080;2023-03-26T04:14:15;100544.02;;;8.12;83.88
58967;BME280;44744;51.894;5.080;2023-03-26T04:15:15;100542.06;;;8.12;83.88
58967;BME280;44744;51.894;5.080;2023-03-26T04:16:15;100540.48;;;8.12;83.92
58967;BME280;44744;51.894;5.080;2023-03-26T04:17:17;100538.03;;;8.12;83.86
58967;BME280;44744;51.894;5.080;2023-03-26T04:18:17;100539.06;;;8.12;83.89
58967;BME280;44744;51.894;5.080;2023-03-26T04:19:17;100536.81;;;8.11;83.71
58967;BME280;44744;51.894;5.080;2023-03-26T04:20:17;100533.84;;;8.11;83.73
58967;BME280;44744;51.894;5.080;2023-03-26T04:21:18;100531.62;;;8.10;83.72
58967;BME280;44744;51.894;5.080;2023-03-26T04:22:21;100529.77;;;8.08;83.66
58967;BME280;44744;51.894;5.080;2023-03-26T04:23:21;100529.09;;;8.07;83.74
58967;BME280;44744;51.894;5.080;2023-03-26T04:24:22;100527.43;;;8.05;83.66
58967;BME280;44744;51.894;5.080;2023-03-26T04:25:22;100526.07;;;8.05;83.78
58967;BME280;44744;51.894;5.080;2023-03-26T04:26:23;100525.89;;;8.04;83.65
58967;BME280;44744;51.894;5.080;2023-03-26T04:27:26;100525.19;;;8.04;83.70
58967;BME280;44744;51.894;5.080;2023-03-26T04:29:40;100522.95;;;8.03;83.79
58967;BME280;44744;51.894;5.080;2023-03-26T04:30:41;100516.98;;;8.03;83.65
58967;BME280;44744;51.894;5.080;2023-03-26T04:31:42;100517.52;;;8.03;83.66
58967;BME280;44744;51.894;5.080;2023-03-26T04:32:42;100515.58;;;8.03;83.85
58967;BME280;44744;51.894;5.080;2023-03-26T04:33:44;100510.98;;;8.03;83.75
58967;BME280;44744;51.894;5.080;2023-03-26T04:34:45;100509.69;;;8.04;83.79
58967;BME280;44744;51.894;5.080;2023-03-26T04:35:46;100508.84;;;8.04;83.71
58967;BME280;44744;51.894;5.080;2023-03-26T04:36:47;100507.58;;;8.04;83.66
58967;BME280;44744;51.894;5.080;2023-03-26T04:37:47;100505.69;;;8.03;83.69
58967;BME280;44744;51.894;5.080;2023-03-26T04:38:49;100505.17;;;8.03;83.59
58967;BME280;44744;51.894;5.080;2023-03-26T04:39:49;100503.11;;;8.02;83.68
58967;BME280;44744;51.894;5.080;2023-03-26T04:40:49;100500.34;;;8.01;83.64
58967;BME280;44744;51.894;5.080;2023-03-26T04:41:49;100499.30;;;8.00;83.65
58967;BME280;44744;51.894;5.080;2023-03-26T04:42:50;100499.85;;;8.00;83.68
58967;BME280;44744;51.894;5.080;2023-03-26T04:43:54;100493.72;;;7.99;83.65
58967;BME280;44744;51.894;5.080;2023-03-26T04:44:54;100496.03;;;7.99;83.62
58967;BME280;44744;51.894;5.080;2023-03-26T04:45:55;100488.38;;;7.97;83.74
58967;BME280;44744;51.894;5.080;2023-03-26T04:46:55;100494.29;;;7.99;83.65
58967;BME280;44744;51.894;5.080;2023-03-26T04:47:56;100486.77;;;7.97;83.54
58967;BME280;44744;51.894;5.080;2023-03-26T04:48:56;100486.61;;;7.97;83.69
58967;BME280;44744;51.894;5.080;2023-03-26T04:49:57;100487.67;;;7.97;83.60
58967;BME280;44744;51.894;5.080;2023-03-26T04:50:57;100484.65;;;7.98;83.58
58967;BME280;44744;51.894;5.080;2023-03-26T04:51:57;100482.91;;;7.97;83.59
58967;BME280;44744;51.894;5.080;2023-03-26T04:52:58;100480.63;;;7.97;83.61
58967;BME280;44744;51.894;5.080;2023-03-26T04:53:59;100482.45;;;7.96;83.52
58967;BME280;44744;51.894;5.080;2023-03-26T04:55:04;100478.08;;;7.95;83.59
58967;BME280;44744;51.894;5.080;2023-03-26T04:56:31;100478.45;;;7.95;83.63
58967;BME280;44744;51.894;5.080;2023-03-26T04:57:37;100476.45;;;7.92;83.59
58967;BME280;44744;51.894;5.080;2023-03-26T04:58:39;100475.98;;;7.91;83.68
58967;BME280;44744;51.894;5.080;2023-03-26T04:59:39;100472.53;;;7.90;83.68
58967;BME280;44744;51.894;5.080;2023-03-26T05:00:40;100472.95;;;7.89;83.65
58967;BME280;44744;51.894;5.080;2023-03-26T05:01:41;100468.26;;;7.88;83.67
58967;BME280;44744;51.894;5.080;2023-03-26T05:02:42;100467.44;;;7.86;83.60
58967;BME280;44744;51.894;5.080;2023-03-26T05:03:43;100465.54;;;7.85;83.65
58967;BME280;44744;51.894;5.080;2023-03-26T05:04:43;100462.58;;;7.85;83.76
58967;BME280;44744;51.894;5.080;2023-03-26T05:05:43;100462.45;;;7.84;83.82
58967;BME280;44744;51.894;5.080;2023-03-26T05:06:44;100458.61;;;7.83;83.63
58967;BME280;44744;51.894;5.080;2023-03-26T05:07:44;100458.86;;;7.82;83.60
58967;BME280;44744;51.894;5.080;2023-03-26T05:08:47;100457.20;;;7.79;83.68
58967;BME280;44744;51.894;5.080;2023-03-26T05:09:48;100454.40;;;7.79;83.81
58967;BME280;44744;51.894;5.080;2023-03-26T05:10:48;100457.27;;;7.78;83.87
58967;BME280;44744;51.894;5.080;2023-03-26T05:11:49;100454.70;;;7.77;84.00
58967;BME280;44744;51.894;5.080;2023-03-26T05:12:58;100448.86;;;7.77;83.99
58967;BME280;44744;51.894;5.080;2023-03-26T05:13:58;100450.10;;;7.77;84.02
58967;BME280;44744;51.894;5.080;2023-03-26T05:14:59;100445.83;;;7.78;83.98
58967;BME280;44744;51.894;5.080;2023-03-26T05:15:59;100443.53;;;7.78;84.21
58967;BME280;44744;51.894;5.080;2023-03-26T05:16:59;100443.69;;;7.79;83.99
58967;BME280;44744;51.894;5.080;2023-03-26T05:18:00;100441.80;;;7.77;84.00
58967;BME280;44744;51.894;5.080;2023-03-26T05:19:00;100442.06;;;7.76;84.02
58967;BME280;44744;51.894;5.080;2023-03-26T05:20:01;100441.52;;;7.76;84.10
58967;BME280;44744;51.894;5.080;2023-03-26T05:21:01;100441.40;;;7.75;84.15
58967;BME280;44744;51.894;5.080;2023-03-26T05:22:02;100439.45;;;7.76;84.17
58967;BME280;44744;51.894;5.080;2023-03-26T05:23:02;100438.78;;;7.75;84.19
58967;BME280;44744;51.894;5.080;2023-03-26T05:24:03;100436.36;;;7.74;84.20
58967;BME280;44744;51.894;5.080;2023-03-26T05:25:03;100437.73;;;7.75;84.06
58967;BME280;44744;51.894;5.080;2023-03-26T05:26:04;100437.73;;;7.75;84.14
58967;BME280;44744;51.894;5.080;2023-03-26T05:27:05;100438.83;;;7.74;84.13
58967;BME280;44744;51.894;5.080;2023-03-26T05:28:06;100437.16;;;7.72;84.25
58967;BME280;44744;51.894;5.080;2023-03-26T05:29:06;100435.25;;;7.72;84.36
58967;BME280;44744;51.894;5.080;2023-03-26T05:30:07;100436.80;;;7.73;84.46
58967;BME280;44744;51.894;5.080;2023-03-26T05:31:07;100433.95;;;7.73;84.38
58967;BME280;44744;51.894;5.080;2023-03-26T05:32:08;100437.26;;;7.73;84.46
58967;BME280;44744;51.894;5.080;2023-03-26T05:33:09;100435.29;;;7.74;84.40
58967;BME280;44744;51.894;5.080;2023-03-26T05:34:09;100433.82;;;7.75;84.45
58967;BME280;44744;51.894;5.080;2023-03-26T05:35:10;100431.46;;;7.77;84.56
58967;BME280;44744;51.894;5.080;2023-03-26T05:36:11;100430.53;;;7.78;84.55
58967;BME280;44744;51.894;5.080;2023-03-26T05:37:12;100428.75;;;7.78;84.43
58967;BME280;44744;51.894;5.080;2023-03-26T05:38:12;100431.06;;;7.78;84.42
58967;BME280;44744;51.894;5.080;2023-03-26T05:39:12;100427.39;;;7.77;84.48
58967;BME280;44744;51.894;5.080;2023-03-26T05:40:13;100422.13;;;7.77;84.47
58967;BME280;44744;51.894;5.080;2023-03-26T05:41:15;100421.15;;;7.76;84.48
58967;BME280;44744;51.894;5.080;2023-03-26T05:42:15;100417.34;;;7.74;84.42